sensor_id;sensor_type;location;lat;lon;timestamp;P1;durP1;ratioP1;P2;durP2;ratioP2
69623;SDS011;56843;52.020;5.670;2023-05-07T00:00:18;6.53;;;3.13;;
69623;SDS011;56843;52.020;5.670;2023-05-07T00:01:49;10.63;;;3.20;;
69623;SDS011;56843;52.020;5.670;2023-05-07T00:03:19;6.73;;;2.83;;
69623;SDS011;56843;52.020;5.670;2023-05-07T00:04:51;7.45;;;2.80;;
69623;SDS011;56843;52.020;5.670;2023-05-07T00:06:22;6.33;;;2.63;;
69623;SDS011;56843;52.020;5.670;2023-05-07T00:07:52;6.50;;;2.80;;
69623;SDS011;56843;52.020;5.670;2023-05-07T00:09:23;6.67;;;3.23;;
69623;SDS011;56843;52.020;5.670;2023-05-07T00:10:53;15.57;;;2.88;;
69623;SDS011;56843;52.020;5.670;2023-05-07T00:12:24;7.73;;;3.23;;
69623;SDS011;56843;52.020;5.670;2023-05-07T00:13:55;6.70;;;3.08;;
69623;SDS011;56843;52.020;5.670;2023-05-07T00:15:26;7.25;;;3.20;;
69623;SDS011;56843;52.020;5.670;2023-05-07T00:16:56;7.23;;;3.27;;
69623;SDS011;56843;52.020;5.670;2023-05-07T00:18:27;6.33;;;2.93;;
69623;SDS011;56843;52.020;5.670;2023-05-07T00:19:57;7.95;;;3.05;;
69623;SDS011;56843;52.020;5.670;2023-05-07T00:21:28;6.27;;;3.30;;
69623;SDS011;56843;52.020;5.670;2023-05-07T00:22:58;7.30;;;3.10;;
69623;SDS011;56843;52.020;5.670;2023-05-07T00:24:29;8.55;;;2.63;;
69623;SDS011;56843;52.020;5.670;2023-05-07T00:25:59;7.53;;;3.27;;
69623;SDS011;56843;52.020;5.670;2023-05-07T00:27:30;6.30;;;3.00;;
69623;SDS011;56843;52.020;5.670;2023-05-07T00:29:00;6.07;;;2.80;;
69623;SDS011;56843;52.020;5.670;2023-05-07T00:30:31;7.65;;;3.63;;
69623;SDS011;56843;52.020;5.670;2023-05-07T00:32:02;6.10;;;2.83;;
69623;SDS011;56843;52.020;5.670;2023-05-07T00:33:32;9.33;;;3.40;;
69623;SDS011;56843;52.020;5.670;2023-05-07T00:35:03;10.07;;;3.35;;
69623;SDS011;56843;52.020;5.670;2023-05-07T00:36:34;9.02;;;3.13;;
69623;SDS011;56843;52.020;5.670;2023-05-07T00:38:05;8.60;;;3.30;;
69623;SDS011;56843;52.020;5.670;2023-05-07T00:39:36;7.35;;;3.13;;
69623;SDS011;56843;52.020;5.670;2023-05-07T00:41:06;10.40;;;3.60;;
69623;SDS011;56843;52.020;5.670;2023-05-07T00:42:37;8.10;;;3.53;;
69623;SDS011;56843;52.020;5.670;2023-05-07T00:44:08;7.27;;;3.17;;
69623;SDS011;56843;52.020;5.670;2023-05-07T00:45:38;10.88;;;3.30;;
69623;SDS011;56843;52.020;5.670;2023-05-07T00:47:09;6.77;;;3.53;;
69623;SDS011;56843;52.020;5.670;2023-05-07T00:48:40;5.70;;;3.05;;
69623;SDS011;56843;52.020;5.670;2023-05-07T00:50:11;6.90;;;3.23;;
69623;SDS011;56843;52.020;5.670;2023-05-07T00:51:42;9.20;;;3.15;;
69623;SDS011;56843;52.020;5.670;2023-05-07T00:53:13;7.20;;;3.13;;
69623;SDS011;56843;52.020;5.670;2023-05-07T00:54:44;7.83;;;3.07;;
69623;SDS011;56843;52.020;5.670;2023-05-07T00:56:15;13.57;;;4.18;;
69623;SDS011;56843;52.020;5.670;2023-05-07T00:57:45;9.27;;;3.28;;
69623;SDS011;56843;52.020;5.670;2023-05-07T00:59:16;6.03;;;2.80;;
69623;SDS011;56843;52.020;5.670;2023-05-07T01:03:22;6.75;;;2.85;;
69623;SDS011;56843;52.020;5.670;2023-05-07T01:04:53;7.40;;;3.75;;
69623;SDS011;56843;52.020;5.670;2023-05-07T01:06:25;6.45;;;3.30;;
69623;SDS011;56843;52.020;5.670;2023-05-07T01:07:58;7.20;;;3.28;;
69623;SDS011;56843;52.020;5.670;2023-05-07T01:09:30;8.30;;;2.95;;
69623;SDS011;56843;52.020;5.670;2023-05-07T01:11:01;9.23;;;3.63;;
69623;SDS011;56843;52.020;5.670;2023-05-07T01:12:32;7.22;;;3.83;;
69623;SDS011;56843;52.020;5.670;2023-05-07T01:14:04;7.43;;;3.33;;
69623;SDS011;56843;52.020;5.670;2023-05-07T01:15:35;6.93;;;3.15;;
69623;SDS011;56843;52.020;5.670;2023-05-07T01:17:06;7.40;;;3.33;;
69623;SDS011;56843;52.020;5.670;2023-05-07T01:18:36;7.13;;;3.50;;
69623;SDS011;56843;52.020;5.670;2023-05-07T01:20:08;9.25;;;3.85;;
69623;SDS011;56843;52.020;5.670;2023-05-07T01:21:40;7.45;;;3.42;;
69623;SDS011;56843;52.020;5.670;2023-05-07T01:23:16;8.68;;;3.60;;
69623;SDS011;56843;52.020;5.670;2023-05-07T01:24:47;8.75;;;3.55;;
69623;SDS011;56843;52.020;5.670;2023-05-07T01:26:20;9.32;;;3.78;;
69623;SDS011;56843;52.020;5.670;2023-05-07T01:27:52;8.80;;;3.57;;
69623;SDS011;56843;52.020;5.670;2023-05-07T01:29:25;8.00;;;3.70;;
69623;SDS011;56843;52.020;5.670;2023-05-07T01:30:59;7.57;;;3.50;;
69623;SDS011;56843;52.020;5.670;2023-05-07T01:34:18;6.32;;;3.28;;
69623;SDS011;56843;52.020;5.670;2023-05-07T01:35:52;8.43;;;3.58;;
69623;SDS011;56843;52.020;5.670;2023-05-07T01:37:24;7.90;;;3.40;;
69623;SDS011;56843;52.020;5.670;2023-05-07T01:38:55;7.90;;;3.78;;
69623;SDS011;56843;52.020;5.670;2023-05-07T01:40:27;8.17;;;3.73;;
69623;SDS011;56843;52.020;5.670;2023-05-07T01:41:58;7.90;;;3.73;;
69623;SDS011;56843;52.020;5.670;2023-05-07T01:43:29;8.40;;;3.78;;
69623;SDS011;56843;52.020;5.670;2023-05-07T01:45:00;11.18;;;4.03;;
69623;SDS011;56843;52.020;5.670;2023-05-07T01:46:31;9.73;;;4.07;;
69623;SDS011;56843;52.020;5.670;2023-05-07T01:48:03;8.40;;;4.13;;
69623;SDS011;56843;52.020;5.670;2023-05-07T01:49:34;7.95;;;3.88;;
69623;SDS011;56843;52.020;5.670;2023-05-07T01:51:05;8.65;;;3.45;;
69623;SDS011;56843;52.020;5.670;2023-05-07T01:52:37;9.30;;;4.07;;
69623;SDS011;56843;52.020;5.670;2023-05-07T01:54:09;10.48;;;4.00;;
69623;SDS011;56843;52.020;5.670;2023-05-07T01:55:40;9.43;;;4.05;;
69623;SDS011;56843;52.020;5.670;2023-05-07T01:57:10;6.95;;;3.78;;
69623;SDS011;56843;52.020;5.670;2023-05-07T01:58:41;7.77;;;4.20;;
69623;SDS011;56843;52.020;5.670;2023-05-07T02:00:12;7.60;;;3.88;;
69623;SDS011;56843;52.020;5.670;2023-05-07T02:01:48;12.85;;;4.22;;
69623;SDS011;56843;52.020;5.670;2023-05-07T02:03:19;8.87;;;4.10;;
69623;SDS011;56843;52.020;5.670;2023-05-07T02:04:58;9.98;;;4.35;;
69623;SDS011;56843;52.020;5.670;2023-05-07T02:06:29;7.80;;;3.92;;
69623;SDS011;56843;52.020;5.670;2023-05-07T02:08:05;7.80;;;3.70;;
69623;SDS011;56843;52.020;5.670;2023-05-07T02:09:36;9.40;;;4.23;;
69623;SDS011;56843;52.020;5.670;2023-05-07T02:11:07;9.63;;;4.20;;
69623;SDS011;56843;52.020;5.670;2023-05-07T02:12:38;10.43;;;4.10;;
69623;SDS011;56843;52.020;5.670;2023-05-07T02:14:09;8.40;;;4.10;;
69623;SDS011;56843;52.020;5.670;2023-05-07T02:15:40;11.77;;;4.38;;
69623;SDS011;56843;52.020;5.670;2023-05-07T02:17:10;10.03;;;4.23;;
69623;SDS011;56843;52.020;5.670;2023-05-07T02:18:41;8.90;;;3.83;;
69623;SDS011;56843;52.020;5.670;2023-05-07T02:20:12;10.63;;;3.87;;
69623;SDS011;56843;52.020;5.670;2023-05-07T02:21:45;7.68;;;4.10;;
69623;SDS011;56843;52.020;5.670;2023-05-07T02:23:15;9.55;;;4.28;;
69623;SDS011;56843;52.020;5.670;2023-05-07T02:24:46;8.27;;;4.13;;
69623;SDS011;56843;52.020;5.670;2023-05-07T02:26:16;7.43;;;3.77;;
69623;SDS011;56843;52.020;5.670;2023-05-07T02:27:47;7.90;;;4.00;;
69623;SDS011;56843;52.020;5.670;2023-05-07T02:29:18;8.80;;;3.58;;
69623;SDS011;56843;52.020;5.670;2023-05-07T02:30:49;7.90;;;4.10;;
69623;SDS011;56843;52.020;5.670;2023-05-07T02:32:20;8.43;;;4.35;;
69623;SDS011;56843;52.020;5.670;2023-05-07T02:33:51;8.10;;;4.30;;
69623;SDS011;56843;52.020;5.670;2023-05-07T02:35:21;8.17;;;3.83;;
69623;SDS011;56843;52.020;5.670;2023-05-07T02:36:52;8.48;;;4.25;;
69623;SDS011;56843;52.020;5.670;2023-05-07T02:38:26;11.30;;;4.53;;
69623;SDS011;56843;52.020;5.670;2023-05-07T02:39:57;8.67;;;4.70;;
69623;SDS011;56843;52.020;5.670;2023-05-07T02:41:28;8.85;;;3.88;;
69623;SDS011;56843;52.020;5.670;2023-05-07T02:42:59;7.23;;;3.77;;
69623;SDS011;56843;52.020;5.670;2023-05-07T02:44:29;7.70;;;4.00;;
69623;SDS011;56843;52.020;5.670;2023-05-07T02:47:36;7.82;;;3.72;;
69623;SDS011;56843;52.020;5.670;2023-05-07T02:49:08;8.80;;;4.45;;
69623;SDS011;56843;52.020;5.670;2023-05-07T02:50:38;9.47;;;4.47;;
69623;SDS011;56843;52.020;5.670;2023-05-07T02:52:09;7.90;;;4.07;;
69623;SDS011;56843;52.020;5.670;2023-05-07T02:53:39;8.90;;;4.00;;
69623;SDS011;56843;52.020;5.670;2023-05-07T02:55:10;8.50;;;4.27;;
69623;SDS011;56843;52.020;5.670;2023-05-07T02:56:40;10.93;;;4.10;;
69623;SDS011;56843;52.020;5.670;2023-05-07T02:58:11;9.23;;;4.00;;
69623;SDS011;56843;52.020;5.670;2023-05-07T02:59:43;8.00;;;4.10;;
69623;SDS011;56843;52.020;5.670;2023-05-07T03:01:15;9.07;;;4.38;;
69623;SDS011;56843;52.020;5.670;2023-05-07T03:02:54;9.45;;;4.55;;
69623;SDS011;56843;52.020;5.670;2023-05-07T03:04:26;9.85;;;4.60;;
69623;SDS011;56843;52.020;5.670;2023-05-07T03:05:56;9.17;;;4.40;;
69623;SDS011;56843;52.020;5.670;2023-05-07T03:07:27;9.27;;;4.38;;
69623;SDS011;56843;52.020;5.670;2023-05-07T03:08:57;8.37;;;4.37;;
69623;SDS011;56843;52.020;5.670;2023-05-07T03:10:28;8.17;;;3.83;;
69623;SDS011;56843;52.020;5.670;2023-05-07T03:11:58;7.93;;;4.55;;
69623;SDS011;56843;52.020;5.670;2023-05-07T03:13:29;8.37;;;4.57;;
69623;SDS011;56843;52.020;5.670;2023-05-07T03:15:00;10.88;;;4.72;;
69623;SDS011;56843;52.020;5.670;2023-05-07T03:16:31;11.60;;;4.40;;
69623;SDS011;56843;52.020;5.670;2023-05-07T03:18:01;9.80;;;4.43;;
69623;SDS011;56843;52.020;5.670;2023-05-07T03:19:32;9.70;;;4.40;;
69623;SDS011;56843;52.020;5.670;2023-05-07T03:21:02;8.35;;;4.30;;
69623;SDS011;56843;52.020;5.670;2023-05-07T03:22:33;9.13;;;4.47;;
69623;SDS011;56843;52.020;5.670;2023-05-07T03:24:03;10.73;;;4.73;;
69623;SDS011;56843;52.020;5.670;2023-05-07T03:25:34;12.75;;;4.97;;
69623;SDS011;56843;52.020;5.670;2023-05-07T03:27:05;8.63;;;5.05;;
69623;SDS011;56843;52.020;5.670;2023-05-07T03:28:36;8.53;;;4.27;;
69623;SDS011;56843;52.020;5.670;2023-05-07T03:30:09;8.93;;;4.47;;
69623;SDS011;56843;52.020;5.670;2023-05-07T03:31:41;8.20;;;4.65;;
69623;SDS011;56843;52.020;5.670;2023-05-07T03:33:11;10.98;;;5.07;;
69623;SDS011;56843;52.020;5.670;2023-05-07T03:34:42;8.57;;;4.27;;
69623;SDS011;56843;52.020;5.670;2023-05-07T03:36:15;8.93;;;3.95;;
69623;SDS011;56843;52.020;5.670;2023-05-07T03:37:46;11.57;;;3.70;;
69623;SDS011;56843;52.020;5.670;2023-05-07T03:39:17;13.10;;;3.60;;
69623;SDS011;56843;52.020;5.670;2023-05-07T03:40:47;14.10;;;3.53;;
69623;SDS011;56843;52.020;5.670;2023-05-07T03:42:18;24.57;;;3.70;;
69623;SDS011;56843;52.020;5.670;2023-05-07T03:43:49;17.77;;;3.40;;
69623;SDS011;56843;52.020;5.670;2023-05-07T03:45:20;19.67;;;3.47;;
69623;SDS011;56843;52.020;5.670;2023-05-07T03:47:00;11.65;;;3.50;;
69623;SDS011;56843;52.020;5.670;2023-05-07T03:48:30;17.93;;;3.57;;
69623;SDS011;56843;52.020;5.670;2023-05-07T03:50:02;11.52;;;2.97;;
69623;SDS011;56843;52.020;5.670;2023-05-07T03:51:33;17.23;;;2.85;;
69623;SDS011;56843;52.020;5.670;2023-05-07T03:53:04;6.43;;;2.50;;
69623;SDS011;56843;52.020;5.670;2023-05-07T03:54:37;7.40;;;2.85;;
69623;SDS011;56843;52.020;5.670;2023-05-07T03:56:08;8.18;;;1.98;;
69623;SDS011;56843;52.020;5.670;2023-05-07T03:57:41;7.10;;;2.70;;
69623;SDS011;56843;52.020;5.670;2023-05-07T03:59:12;7.50;;;2.07;;
69623;SDS011;56843;52.020;5.670;2023-05-07T04:00:44;12.25;;;2.65;;
69623;SDS011;56843;52.020;5.670;2023-05-07T04:02:24;6.95;;;2.35;;
69623;SDS011;56843;52.020;5.670;2023-05-07T04:03:55;6.90;;;2.30;;
69623;SDS011;56843;52.020;5.670;2023-05-07T04:05:26;9.98;;;2.72;;
69623;SDS011;56843;52.020;5.670;2023-05-07T04:07:02;10.88;;;2.45;;
69623;SDS011;56843;52.020;5.670;2023-05-07T04:08:34;10.35;;;2.30;;
69623;SDS011;56843;52.020;5.670;2023-05-07T04:10:05;11.55;;;2.40;;
69623;SDS011;56843;52.020;5.670;2023-05-07T04:11:36;13.18;;;3.25;;
69623;SDS011;56843;52.020;5.670;2023-05-07T04:13:06;6.80;;;2.03;;
69623;SDS011;56843;52.020;5.670;2023-05-07T04:14:37;8.80;;;2.97;;
69623;SDS011;56843;52.020;5.670;2023-05-07T04:16:08;11.50;;;2.70;;
69623;SDS011;56843;52.020;5.670;2023-05-07T04:17:40;20.25;;;3.53;;
69623;SDS011;56843;52.020;5.670;2023-05-07T04:19:12;15.32;;;2.72;;
69623;SDS011;56843;52.020;5.670;2023-05-07T04:20:43;9.47;;;2.90;;
69623;SDS011;56843;52.020;5.670;2023-05-07T04:22:16;11.83;;;2.80;;
69623;SDS011;56843;52.020;5.670;2023-05-07T04:23:47;10.27;;;2.33;;
69623;SDS011;56843;52.020;5.670;2023-05-07T04:25:18;10.60;;;2.65;;
69623;SDS011;56843;52.020;5.670;2023-05-07T04:26:49;14.00;;;2.60;;
69623;SDS011;56843;52.020;5.670;2023-05-07T04:28:21;16.13;;;2.53;;
69623;SDS011;56843;52.020;5.670;2023-05-07T04:29:52;10.77;;;2.92;;
69623;SDS011;56843;52.020;5.670;2023-05-07T04:31:25;14.45;;;2.67;;
69623;SDS011;56843;52.020;5.670;2023-05-07T04:32:58;16.00;;;2.93;;
69623;SDS011;56843;52.020;5.670;2023-05-07T04:34:31;9.73;;;2.47;;
69623;SDS011;56843;52.020;5.670;2023-05-07T04:36:03;15.32;;;2.45;;
69623;SDS011;56843;52.020;5.670;2023-05-07T04:37:36;10.30;;;2.85;;
69623;SDS011;56843;52.020;5.670;2023-05-07T04:39:07;11.55;;;2.08;;
69623;SDS011;56843;52.020;5.670;2023-05-07T04:40:37;12.30;;;2.47;;
69623;SDS011;56843;52.020;5.670;2023-05-07T04:42:09;8.98;;;2.20;;
69623;SDS011;56843;52.020;5.670;2023-05-07T04:43:39;10.17;;;2.10;;
69623;SDS011;56843;52.020;5.670;2023-05-07T04:45:11;8.40;;;2.47;;
69623;SDS011;56843;52.020;5.670;2023-05-07T04:46:44;6.65;;;2.03;;
69623;SDS011;56843;52.020;5.670;2023-05-07T04:48:15;5.82;;;2.10;;
69623;SDS011;56843;52.020;5.670;2023-05-07T04:49:46;7.73;;;2.40;;
69623;SDS011;56843;52.020;5.670;2023-05-07T04:51:16;8.27;;;2.33;;
69623;SDS011;56843;52.020;5.670;2023-05-07T04:52:47;5.43;;;2.03;;
69623;SDS011;56843;52.020;5.670;2023-05-07T04:54:18;6.70;;;2.30;;
69623;SDS011;56843;52.020;5.670;2023-05-07T04:55:48;5.90;;;2.20;;
69623;SDS011;56843;52.020;5.670;2023-05-07T04:57:19;7.47;;;2.50;;
69623;SDS011;56843;52.020;5.670;2023-05-07T04:58:50;5.23;;;2.13;;
69623;SDS011;56843;52.020;5.670;2023-05-07T05:00:23;7.22;;;2.40;;
69623;SDS011;56843;52.020;5.670;2023-05-07T05:01:56;5.43;;;2.20;;
69623;SDS011;56843;52.020;5.670;2023-05-07T05:03:28;6.00;;;2.22;;
69623;SDS011;56843;52.020;5.670;2023-05-07T05:04:59;12.48;;;2.65;;
69623;SDS011;56843;52.020;5.670;2023-05-07T05:06:30;6.77;;;3.00;;
69623;SDS011;56843;52.020;5.670;2023-05-07T05:08:00;7.20;;;2.60;;
69623;SDS011;56843;52.020;5.670;2023-05-07T05:09:31;7.80;;;2.60;;
69623;SDS011;56843;52.020;5.670;2023-05-07T05:11:02;7.30;;;2.23;;
69623;SDS011;56843;52.020;5.670;2023-05-07T05:12:32;5.13;;;2.00;;
69623;SDS011;56843;52.020;5.670;2023-05-07T05:14:04;6.70;;;2.30;;
69623;SDS011;56843;52.020;5.670;2023-05-07T05:15:35;9.40;;;2.37;;
69623;SDS011;56843;52.020;5.670;2023-05-07T05:17:06;5.13;;;2.00;;
69623;SDS011;56843;52.020;5.670;2023-05-07T05:18:37;7.25;;;2.92;;
69623;SDS011;56843;52.020;5.670;2023-05-07T05:20:08;5.73;;;2.13;;
69623;SDS011;56843;52.020;5.670;2023-05-07T05:21:41;6.80;;;2.60;;
69623;SDS011;56843;52.020;5.670;2023-05-07T05:23:13;8.05;;;2.72;;
69623;SDS011;56843;52.020;5.670;2023-05-07T05:24:43;7.72;;;2.50;;
69623;SDS011;56843;52.020;5.670;2023-05-07T05:26:14;5.43;;;2.50;;
69623;SDS011;56843;52.020;5.670;2023-05-07T05:27:45;8.70;;;2.40;;
69623;SDS011;56843;52.020;5.670;2023-05-07T05:29:15;6.50;;;2.13;;
69623;SDS011;56843;52.020;5.670;2023-05-07T05:30:46;7.40;;;2.28;;
69623;SDS011;56843;52.020;5.670;2023-05-07T05:32:17;6.23;;;2.00;;
69623;SDS011;56843;52.020;5.670;2023-05-07T05:33:48;5.40;;;2.15;;
69623;SDS011;56843;52.020;5.670;2023-05-07T05:35:18;4.50;;;1.87;;
69623;SDS011;56843;52.020;5.670;2023-05-07T05:36:49;9.43;;;3.00;;
69623;SDS011;56843;52.020;5.670;2023-05-07T05:38:20;6.47;;;2.13;;
69623;SDS011;56843;52.020;5.670;2023-05-07T05:39:52;12.20;;;2.35;;
69623;SDS011;56843;52.020;5.670;2023-05-07T05:41:23;6.80;;;2.40;;
69623;SDS011;56843;52.020;5.670;2023-05-07T05:42:54;11.15;;;2.58;;
69623;SDS011;56843;52.020;5.670;2023-05-07T05:44:25;6.63;;;2.20;;
69623;SDS011;56843;52.020;5.670;2023-05-07T05:45:56;10.20;;;2.17;;
69623;SDS011;56843;52.020;5.670;2023-05-07T05:47:27;7.05;;;2.20;;
69623;SDS011;56843;52.020;5.670;2023-05-07T05:48:59;6.10;;;2.08;;
69623;SDS011;56843;52.020;5.670;2023-05-07T05:50:30;6.13;;;2.38;;
69623;SDS011;56843;52.020;5.670;2023-05-07T05:52:01;9.90;;;2.60;;
69623;SDS011;56843;52.020;5.670;2023-05-07T05:53:31;8.88;;;2.20;;
69623;SDS011;56843;52.020;5.670;2023-05-07T05:55:02;8.27;;;2.23;;
69623;SDS011;56843;52.020;5.670;2023-05-07T05:56:33;5.82;;;2.00;;
69623;SDS011;56843;52.020;5.670;2023-05-07T05:58:03;5.47;;;2.07;;
69623;SDS011;56843;52.020;5.670;2023-05-07T05:59:37;9.02;;;1.58;;
69623;SDS011;56843;52.020;5.670;2023-05-07T06:01:07;3.20;;;1.23;;
69623;SDS011;56843;52.020;5.670;2023-05-07T06:02:40;6.20;;;2.03;;
69623;SDS011;56843;52.020;5.670;2023-05-07T06:04:11;4.30;;;1.70;;
69623;SDS011;56843;52.020;5.670;2023-05-07T06:05:42;6.22;;;2.10;;
69623;SDS011;56843;52.020;5.670;2023-05-07T06:07:12;6.53;;;2.22;;
69623;SDS011;56843;52.020;5.670;2023-05-07T06:08:43;5.10;;;1.90;;
69623;SDS011;56843;52.020;5.670;2023-05-07T06:10:16;5.78;;;2.17;;
69623;SDS011;56843;52.020;5.670;2023-05-07T06:11:46;6.87;;;2.07;;
69623;SDS011;56843;52.020;5.670;2023-05-07T06:13:17;5.10;;;2.10;;
69623;SDS011;56843;52.020;5.670;2023-05-07T06:14:47;5.13;;;2.17;;
69623;SDS011;56843;52.020;5.670;2023-05-07T06:16:18;6.93;;;2.13;;
69623;SDS011;56843;52.020;5.670;2023-05-07T06:17:48;5.70;;;2.07;;
69623;SDS011;56843;52.020;5.670;2023-05-07T06:19:19;5.20;;;2.10;;
69623;SDS011;56843;52.020;5.670;2023-05-07T06:20:53;5.75;;;2.38;;
69623;SDS011;56843;52.020;5.670;2023-05-07T06:22:28;4.57;;;1.70;;
69623;SDS011;56843;52.020;5.670;2023-05-07T06:23:59;4.07;;;1.90;;
69623;SDS011;56843;52.020;5.670;2023-05-07T06:25:30;4.95;;;2.10;;
69623;SDS011;56843;52.020;5.670;2023-05-07T06:27:00;4.27;;;1.60;;
69623;SDS011;56843;52.020;5.670;2023-05-07T06:28:32;5.45;;;2.10;;
69623;SDS011;56843;52.020;5.670;2023-05-07T06:30:08;5.80;;;2.03;;
69623;SDS011;56843;52.020;5.670;2023-05-07T06:31:38;6.60;;;2.08;;
69623;SDS011;56843;52.020;5.670;2023-05-07T06:33:12;6.13;;;2.40;;
69623;SDS011;56843;52.020;5.670;2023-05-07T06:34:42;4.57;;;1.87;;
69623;SDS011;56843;52.020;5.670;2023-05-07T06:36:13;6.07;;;2.20;;
69623;SDS011;56843;52.020;5.670;2023-05-07T06:37:44;5.15;;;2.30;;
69623;SDS011;56843;52.020;5.670;2023-05-07T06:39:20;6.22;;;2.63;;
69623;SDS011;56843;52.020;5.670;2023-05-07T06:40:50;4.83;;;2.10;;
69623;SDS011;56843;52.020;5.670;2023-05-07T06:42:21;6.53;;;2.42;;
69623;SDS011;56843;52.020;5.670;2023-05-07T06:43:53;5.40;;;2.30;;
69623;SDS011;56843;52.020;5.670;2023-05-07T06:45:41;4.60;;;2.00;;
69623;SDS011;56843;52.020;5.670;2023-05-07T06:47:13;9.38;;;2.70;;
69623;SDS011;56843;52.020;5.670;2023-05-07T06:48:44;7.60;;;2.13;;
69623;SDS011;56843;52.020;5.670;2023-05-07T06:50:14;6.97;;;2.40;;
69623;SDS011;56843;52.020;5.670;2023-05-07T06:51:48;7.25;;;2.75;;
69623;SDS011;56843;52.020;5.670;2023-05-07T06:53:18;6.65;;;2.55;;
69623;SDS011;56843;52.020;5.670;2023-05-07T06:54:49;6.33;;;2.60;;
69623;SDS011;56843;52.020;5.670;2023-05-07T06:56:21;5.43;;;2.55;;
69623;SDS011;56843;52.020;5.670;2023-05-07T06:57:53;7.63;;;2.70;;
69623;SDS011;56843;52.020;5.670;2023-05-07T06:59:25;9.50;;;3.00;;
69623;SDS011;56843;52.020;5.670;2023-05-07T07:00:56;5.95;;;2.65;;
69623;SDS011;56843;52.020;5.670;2023-05-07T07:02:27;6.85;;;2.55;;
69623;SDS011;56843;52.020;5.670;2023-05-07T07:03:58;6.03;;;2.65;;
69623;SDS011;56843;52.020;5.670;2023-05-07T07:05:29;6.00;;;2.27;;
69623;SDS011;56843;52.020;5.670;2023-05-07T07:07:00;5.28;;;2.47;;
69623;SDS011;56843;52.020;5.670;2023-05-07T07:08:32;5.85;;;2.60;;
69623;SDS011;56843;52.020;5.670;2023-05-07T07:10:03;7.70;;;2.65;;
69623;SDS011;56843;52.020;5.670;2023-05-07T07:11:35;10.67;;;2.87;;
69623;SDS011;56843;52.020;5.670;2023-05-07T07:13:05;8.27;;;2.60;;
69623;SDS011;56843;52.020;5.670;2023-05-07T07:14:36;5.87;;;2.20;;
69623;SDS011;56843;52.020;5.670;2023-05-07T07:16:07;6.38;;;2.50;;
69623;SDS011;56843;52.020;5.670;2023-05-07T07:17:37;6.87;;;2.60;;
69623;SDS011;56843;52.020;5.670;2023-05-07T07:19:08;7.33;;;2.93;;
69623;SDS011;56843;52.020;5.670;2023-05-07T07:20:38;7.37;;;2.63;;
69623;SDS011;56843;52.020;5.670;2023-05-07T07:22:10;6.50;;;1.80;;
69623;SDS011;56843;52.020;5.670;2023-05-07T07:23:42;5.88;;;2.60;;
69623;SDS011;56843;52.020;5.670;2023-05-07T07:25:12;6.20;;;2.57;;
69623;SDS011;56843;52.020;5.670;2023-05-07T07:26:43;6.50;;;2.10;;
69623;SDS011;56843;52.020;5.670;2023-05-07T07:28:13;5.35;;;1.80;;
69623;SDS011;56843;52.020;5.670;2023-05-07T07:29:44;5.43;;;2.30;;
69623;SDS011;56843;52.020;5.670;2023-05-07T07:31:15;7.60;;;2.90;;
69623;SDS011;56843;52.020;5.670;2023-05-07T07:32:45;7.13;;;2.50;;
69623;SDS011;56843;52.020;5.670;2023-05-07T07:34:16;4.22;;;1.85;;
69623;SDS011;56843;52.020;5.670;2023-05-07T07:35:46;7.67;;;2.40;;
69623;SDS011;56843;52.020;5.670;2023-05-07T07:37:17;3.97;;;1.80;;
69623;SDS011;56843;52.020;5.670;2023-05-07T07:38:47;6.53;;;2.67;;
69623;SDS011;56843;52.020;5.670;2023-05-07T07:40:20;6.07;;;3.10;;
69623;SDS011;56843;52.020;5.670;2023-05-07T07:41:50;5.37;;;2.40;;
69623;SDS011;56843;52.020;5.670;2023-05-07T07:43:22;5.00;;;2.05;;
69623;SDS011;56843;52.020;5.670;2023-05-07T07:44:53;4.55;;;2.10;;
69623;SDS011;56843;52.020;5.670;2023-05-07T07:46:25;6.17;;;2.60;;
69623;SDS011;56843;52.020;5.670;2023-05-07T07:47:58;5.73;;;2.23;;
69623;SDS011;56843;52.020;5.670;2023-05-07T07:49:28;4.40;;;1.92;;
69623;SDS011;56843;52.020;5.670;2023-05-07T07:51:00;6.07;;;2.30;;
69623;SDS011;56843;52.020;5.670;2023-05-07T07:52:31;4.67;;;1.73;;
69623;SDS011;56843;52.020;5.670;2023-05-07T07:54:02;5.00;;;2.13;;
69623;SDS011;56843;52.020;5.670;2023-05-07T07:55:37;14.77;;;1.85;;
69623;SDS011;56843;52.020;5.670;2023-05-07T07:57:09;6.83;;;1.57;;
69623;SDS011;56843;52.020;5.670;2023-05-07T07:58:40;4.70;;;2.30;;
69623;SDS011;56843;52.020;5.670;2023-05-07T08:00:11;18.20;;;1.92;;
69623;SDS011;56843;52.020;5.670;2023-05-07T08:01:48;6.40;;;2.53;;
69623;SDS011;56843;52.020;5.670;2023-05-07T08:03:20;7.65;;;3.00;;
69623;SDS011;56843;52.020;5.670;2023-05-07T08:04:55;4.80;;;2.00;;
69623;SDS011;56843;52.020;5.670;2023-05-07T08:06:25;6.67;;;2.20;;
69623;SDS011;56843;52.020;5.670;2023-05-07T08:07:57;4.70;;;2.13;;
69623;SDS011;56843;52.020;5.670;2023-05-07T08:09:32;7.78;;;2.88;;
69623;SDS011;56843;52.020;5.670;2023-05-07T08:11:04;5.82;;;2.35;;
69623;SDS011;56843;52.020;5.670;2023-05-07T08:12:37;6.50;;;2.15;;
69623;SDS011;56843;52.020;5.670;2023-05-07T08:14:07;6.13;;;2.17;;
69623;SDS011;56843;52.020;5.670;2023-05-07T08:15:38;7.55;;;2.75;;
69623;SDS011;56843;52.020;5.670;2023-05-07T08:17:09;8.13;;;2.70;;
69623;SDS011;56843;52.020;5.670;2023-05-07T08:18:40;7.07;;;2.77;;
69623;SDS011;56843;52.020;5.670;2023-05-07T08:20:11;7.47;;;2.90;;
69623;SDS011;56843;52.020;5.670;2023-05-07T08:21:42;8.20;;;2.90;;
69623;SDS011;56843;52.020;5.670;2023-05-07T08:23:15;6.30;;;2.70;;
69623;SDS011;56843;52.020;5.670;2023-05-07T08:24:46;9.27;;;2.42;;
69623;SDS011;56843;52.020;5.670;2023-05-07T08:26:17;5.27;;;2.03;;
69623;SDS011;56843;52.020;5.670;2023-05-07T08:27:48;6.78;;;2.80;;
69623;SDS011;56843;52.020;5.670;2023-05-07T08:29:18;8.87;;;3.23;;
69623;SDS011;56843;52.020;5.670;2023-05-07T08:30:50;5.60;;;2.47;;
69623;SDS011;56843;52.020;5.670;2023-05-07T08:32:20;14.32;;;3.25;;
69623;SDS011;56843;52.020;5.670;2023-05-07T08:33:51;7.23;;;2.70;;
69623;SDS011;56843;52.020;5.670;2023-05-07T08:35:21;7.20;;;2.75;;
69623;SDS011;56843;52.020;5.670;2023-05-07T08:36:52;6.07;;;2.37;;
69623;SDS011;56843;52.020;5.670;2023-05-07T08:38:25;15.95;;;6.10;;
69623;SDS011;56843;52.020;5.670;2023-05-07T08:39:56;11.52;;;5.93;;
69623;SDS011;56843;52.020;5.670;2023-05-07T08:41:30;10.30;;;5.40;;
69623;SDS011;56843;52.020;5.670;2023-05-07T08:43:01;12.53;;;6.63;;
69623;SDS011;56843;52.020;5.670;2023-05-07T08:44:33;13.27;;;6.78;;
69623;SDS011;56843;52.020;5.670;2023-05-07T08:46:08;13.52;;;7.60;;
69623;SDS011;56843;52.020;5.670;2023-05-07T08:47:46;12.05;;;6.90;;
69623;SDS011;56843;52.020;5.670;2023-05-07T08:49:20;12.43;;;7.32;;
69623;SDS011;56843;52.020;5.670;2023-05-07T08:50:50;16.05;;;6.85;;
69623;SDS011;56843;52.020;5.670;2023-05-07T08:52:21;10.87;;;6.57;;
69623;SDS011;56843;52.020;5.670;2023-05-07T08:53:52;12.13;;;6.57;;
69623;SDS011;56843;52.020;5.670;2023-05-07T08:55:30;12.43;;;5.70;;
69623;SDS011;56843;52.020;5.670;2023-05-07T08:57:01;11.90;;;6.18;;
69623;SDS011;56843;52.020;5.670;2023-05-07T08:58:32;15.05;;;6.97;;
69623;SDS011;56843;52.020;5.670;2023-05-07T09:00:04;13.00;;;6.77;;
69623;SDS011;56843;52.020;5.670;2023-05-07T09:01:36;13.30;;;6.55;;
69623;SDS011;56843;52.020;5.670;2023-05-07T09:03:07;11.82;;;7.18;;
69623;SDS011;56843;52.020;5.670;2023-05-07T09:04:39;16.10;;;6.82;;
69623;SDS011;56843;52.020;5.670;2023-05-07T09:06:10;12.40;;;5.93;;
69623;SDS011;56843;52.020;5.670;2023-05-07T09:07:40;12.20;;;6.93;;
69623;SDS011;56843;52.020;5.670;2023-05-07T09:09:14;11.73;;;6.53;;
69623;SDS011;56843;52.020;5.670;2023-05-07T09:10:46;16.50;;;6.20;;
69623;SDS011;56843;52.020;5.670;2023-05-07T09:12:18;10.63;;;6.25;;
69623;SDS011;56843;52.020;5.670;2023-05-07T09:13:52;13.52;;;6.68;;
69623;SDS011;56843;52.020;5.670;2023-05-07T09:15:28;14.30;;;7.00;;